Disclaimer

Please do not use the information listed here in-flight or in-navigation, as they are not provided to us by the airports but are provided by volunteers, so they might be outdated.

Search


Regions


Airport information page

Radio informations:
Tower (TWR) - 118.1 MHz
CUCUTA RDO - 3488 MHz
CUCUTA APP - 119.9 MHz

Airport informations:
Latitude: 07° 55' 39.24" N
Longitude: 072° 30' 41.57" W
Elevation: 1096 feet - 334 meters
Operating hours: Remarks
Operating agency: Civil government, landing fees and diplomatic clearance may be required
Timezone: UTC-5
Fuel: Jet A1, without icing nhibitor.

100/130 MIL Spec, low lead, aviation gasoline (BLUE)

Runway information:
02/20 - 6341 x 148 feet< - >1933 x 45 meters
16/34 - 7700 x 148 feet< - >2347 x 45 meters

Recent METARs:
SKCC 201313Z VRB02KT 9999 SCT015 26/24 A2997
SKCC 201400Z VRB02KT 9999 SCT018 27/24 A2996
SKCC 201400Z VRB02KT 9999 SCT018 27/24 A2996

Airport on the map: